Time;durP1;ratioP1;P1;durP2;ratioP2;P2;SDS_P1;SDS_P2;PMS_P1;PMS_P2;Temp;Humidity;BMP_temperature;BMP_pressure;BME280_temperature;BME280_humidity;BME280_pressure;Samples;Min_cycle;Max_cycle;Signal;HPM_P1;HPM_P2
2023/01/07 00:01:28;;;;;;;12.75;9.18;;;;;;;;;;5048531;28;20137;-75
2023/01/07 00:03:55;;;;;;;12.07;8.95;;;;;;;;;;5045559;28;20555;-75
2023/01/07 00:06:22;;;;;;;12.10;9.48;;;;;;;;;;5046296;28;20107;-76
2023/01/07 00:08:49;;;;;;;12.52;9.38;;;;;;;;;;5047976;28;20041;-75
2023/01/07 00:11:19;;;;;;;14.88;9.70;;;;;;;;;;5044758;28;20439;-76
2023/01/07 00:13:45;;;;;;;14.02;10.00;;;;;;;;;;5076272;28;20041;-76
2023/01/07 00:16:15;;;;;;;12.13;8.80;;;;;;;;;;5042938;28;20087;-75
2023/01/07 00:18:41;;;;;;;13.60;8.52;;;;;;;;;;5037425;28;20045;-74
2023/01/07 00:21:08;;;;;;;13.50;8.90;;;;;;;;;;5044211;28;20128;-73
2023/01/07 00:23:35;;;;;;;14.45;10.02;;;;;;;;;;5079445;28;20041;-74
2023/01/07 00:26:09;;;;;;;14.00;9.95;;;;;;;;;;5046631;28;20403;-74
2023/01/07 00:28:36;;;;;;;15.65;10.02;;;;;;;;;;5046582;28;20055;-74
2023/01/07 00:31:03;;;;;;;16.27;10.30;;;;;;;;;;5044893;28;20063;-74
2023/01/07 00:33:29;;;;;;;14.48;9.60;;;;;;;;;;5040076;28;20390;-74
2023/01/07 00:35:59;;;;;;;13.85;9.90;;;;;;;;;;5041330;28;20488;-74
2023/01/07 00:38:25;;;;;;;16.83;10.63;;;;;;;;;;5044754;28;20102;-74
2023/01/07 00:40:51;;;;;;;13.45;9.10;;;;;;;;;;5044367;28;20106;-75
2023/01/07 00:43:17;;;;;;;15.35;10.10;;;;;;;;;;5078394;28;20103;-74
2023/01/07 00:45:43;;;;;;;17.90;11.18;;;;;;;;;;5075843;28;20452;-74
2023/01/07 00:48:09;;;;;;;16.33;10.88;;;;;;;;;;5037984;28;20045;-74
2023/01/07 00:50:36;;;;;;;16.00;10.82;;;;;;;;;;5045533;28;20111;-75
2023/01/07 00:53:03;;;;;;;15.32;11.32;;;;;;;;;;5048118;28;20037;-74
2023/01/07 00:55:29;;;;;;;15.85;11.07;;;;;;;;;;5044386;28;20076;-74
2023/01/07 00:57:55;;;;;;;15.80;10.55;;;;;;;;;;5044046;28;20041;-75
2023/01/07 01:00:22;;;;;;;14.00;9.73;;;;;;;;;;5075823;28;20057;-75
2023/01/07 01:02:49;;;;;;;15.00;10.10;;;;;;;;;;5042355;28;20492;-74
2023/01/07 01:05:15;;;;;;;15.98;10.23;;;;;;;;;;5046838;28;20049;-74
2023/01/07 01:07:41;;;;;;;13.73;9.73;;;;;;;;;;5046242;28;20523;-75
2023/01/07 01:10:09;;;;;;;15.15;10.60;;;;;;;;;;5041956;28;20044;-74
2023/01/07 01:12:36;;;;;;;14.88;10.73;;;;;;;;;;5046899;28;20051;-74
2023/01/07 01:15:06;;;;;;;14.15;10.50;;;;;;;;;;5046860;28;20041;-74
2023/01/07 01:17:32;;;;;;;16.30;10.40;;;;;;;;;;5045410;28;20045;-74
2023/01/07 01:19:59;;;;;;;11.77;9.77;;;;;;;;;;5045367;28;20456;-74
2023/01/07 01:22:25;;;;;;;15.30;9.88;;;;;;;;;;5044072;28;20049;-75
2023/01/07 01:24:51;;;;;;;13.57;9.88;;;;;;;;;;5048375;28;20045;-75
2023/01/07 01:27:17;;;;;;;14.68;10.13;;;;;;;;;;5043296;28;20052;-75
2023/01/07 01:29:43;;;;;;;14.27;10.73;;;;;;;;;;5042323;28;20040;-74
2023/01/07 01:32:09;;;;;;;9.68;8.50;;;;;;;;;;5042876;28;20045;-74
2023/01/07 01:34:35;;;;;;;14.73;10.48;;;;;;;;;;5038441;28;20485;-74
2023/01/07 01:37:01;;;;;;;13.68;10.20;;;;;;;;;;5046423;28;20068;-74
2023/01/07 01:39:27;;;;;;;9.63;8.40;;;;;;;;;;5040290;28;20045;-75
2023/01/07 01:41:53;;;;;;;10.30;8.27;;;;;;;;;;5044455;28;20091;-74
2023/01/07 01:44:36;;;;;;;9.85;8.18;;;;;;;;;;5044550;28;20091;-74
2023/01/07 01:47:04;;;;;;;13.25;8.60;;;;;;;;;;5044864;28;20036;-74
2023/01/07 01:49:32;;;;;;;12.23;8.18;;;;;;;;;;5046750;28;20060;-74
2023/01/07 01:52:09;;;;;;;9.77;7.90;;;;;;;;;;5043991;28;20072;-74
2023/01/07 01:54:35;;;;;;;10.02;7.15;;;;;;;;;;5080069;28;20427;-74
2023/01/07 01:57:03;;;;;;;11.52;7.55;;;;;;;;;;5045448;28;20415;-75
2023/01/07 01:59:33;;;;;;;10.00;6.95;;;;;;;;;;5048249;28;20056;-75
2023/01/07 02:01:59;;;;;;;13.93;7.97;;;;;;;;;;5045153;28;20073;-74
2023/01/07 02:04:26;;;;;;;12.30;7.90;;;;;;;;;;5042872;28;20060;-74
2023/01/07 02:06:58;;;;;;;9.18;7.47;;;;;;;;;;5043761;28;20037;-75
2023/01/07 02:09:24;;;;;;;10.63;8.77;;;;;;;;;;5036324;28;20045;-75
2023/01/07 02:11:50;;;;;;;10.40;9.20;;;;;;;;;;5045805;28;20130;-74
2023/01/07 02:14:24;;;;;;;11.75;9.25;;;;;;;;;;5046058;28;20142;-75
2023/01/07 02:16:50;;;;;;;10.80;8.73;;;;;;;;;;5043309;28;20132;-74
2023/01/07 02:19:16;;;;;;;10.63;9.30;;;;;;;;;;5046385;28;20124;-74
2023/01/07 02:22:02;;;;;;;13.32;9.52;;;;;;;;;;5044948;28;20132;-74
2023/01/07 02:24:31;;;;;;;14.50;11.85;;;;;;;;;;5042532;28;20045;-74
2023/01/07 02:27:00;;;;;;;16.52;14.35;;;;;;;;;;5050860;28;20091;-75
2023/01/07 02:29:45;;;;;;;18.08;16.20;;;;;;;;;;5046947;28;20122;-74
2023/01/07 02:32:31;;;;;;;21.85;16.85;;;;;;;;;;5047886;28;20048;-75
2023/01/07 02:35:06;;;;;;;20.38;17.40;;;;;;;;;;5085448;28;20064;-74
2023/01/07 02:37:51;;;;;;;20.58;18.38;;;;;;;;;;5044656;28;20685;-75
2023/01/07 02:40:20;;;;;;;21.40;18.98;;;;;;;;;;5076674;28;20092;-75
2023/01/07 02:43:02;;;;;;;21.55;19.30;;;;;;;;;;5045249;28;20269;-75
2023/01/07 02:45:33;;;;;;;20.58;18.38;;;;;;;;;;5047485;28;20052;-75
2023/01/07 02:48:04;;;;;;;20.95;18.67;;;;;;;;;;5044820;28;20487;-75
2023/01/07 02:50:31;;;;;;;20.95;18.27;;;;;;;;;;5081204;28;20041;-74
2023/01/07 02:52:57;;;;;;;22.30;18.35;;;;;;;;;;5047321;28;20110;-75
2023/01/07 02:55:32;;;;;;;21.13;18.92;;;;;;;;;;5049192;28;20448;-75
2023/01/07 02:58:14;;;;;;;21.33;18.85;;;;;;;;;;5047919;28;20396;-75
2023/01/07 03:00:52;;;;;;;20.73;18.52;;;;;;;;;;5047474;28;20040;-75
2023/01/07 03:03:20;;;;;;;23.20;20.73;;;;;;;;;;5047438;28;20045;-74
2023/01/07 03:06:02;;;;;;;21.90;19.33;;;;;;;;;;5042084;28;20095;-74
2023/01/07 03:08:41;;;;;;;23.67;20.23;;;;;;;;;;5043555;28;20377;-75
2023/01/07 03:11:08;;;;;;;22.05;18.95;;;;;;;;;;5047398;28;20096;-74
2023/01/07 03:13:48;;;;;;;22.85;18.65;;;;;;;;;;5047624;28;20053;-75
2023/01/07 03:16:14;;;;;;;23.15;19.52;;;;;;;;;;5045858;28;20049;-74
2023/01/07 03:18:45;;;;;;;24.80;19.63;;;;;;;;;;5081153;28;20037;-74
2023/01/07 03:21:13;;;;;;;23.70;20.35;;;;;;;;;;5080607;28;20048;-74
2023/01/07 03:23:42;;;;;;;20.52;17.02;;;;;;;;;;5046167;28;20080;-74
2023/01/07 03:26:08;;;;;;;21.48;17.92;;;;;;;;;;5043227;28;20484;-74
2023/01/07 03:28:39;;;;;;;21.50;17.95;;;;;;;;;;5079545;28;20036;-74
2023/01/07 03:31:08;;;;;;;21.08;18.60;;;;;;;;;;5044009;28;20068;-75
2023/01/07 03:33:43;;;;;;;20.23;17.67;;;;;;;;;;5042946;28;20049;-74
2023/01/07 03:36:10;;;;;;;18.80;16.13;;;;;;;;;;5047837;28;20049;-75
2023/01/07 03:38:37;;;;;;;22.00;16.95;;;;;;;;;;5048424;28;20111;-74
2023/01/07 03:41:03;;;;;;;19.38;16.40;;;;;;;;;;5047185;28;20041;-75
2023/01/07 03:43:29;;;;;;;19.80;16.98;;;;;;;;;;5051884;28;20052;-74
2023/01/07 03:45:57;;;;;;;20.00;15.82;;;;;;;;;;5076612;28;20077;-74
2023/01/07 03:48:23;;;;;;;19.73;16.13;;;;;;;;;;5049067;28;20044;-74
2023/01/07 03:50:49;;;;;;;20.02;14.60;;;;;;;;;;5048442;28;20051;-74
2023/01/07 03:53:15;;;;;;;18.25;14.75;;;;;;;;;;5050594;28;20045;-75
2023/01/07 03:55:41;;;;;;;19.52;15.00;;;;;;;;;;5043525;28;20515;-75
2023/01/07 03:58:07;;;;;;;19.17;14.85;;;;;;;;;;5048189;28;20056;-74
2023/01/07 04:00:33;;;;;;;17.70;14.80;;;;;;;;;;5048850;28;20136;-75
2023/01/07 04:02:59;;;;;;;18.88;14.48;;;;;;;;;;5038858;28;20131;-74
2023/01/07 04:05:25;;;;;;;21.65;15.55;;;;;;;;;;5047308;28;20203;-74
2023/01/07 04:07:51;;;;;;;19.15;14.65;;;;;;;;;;5047479;28;20032;-75
2023/01/07 04:10:17;;;;;;;17.67;15.25;;;;;;;;;;5045971;28;20048;-74
2023/01/07 04:12:43;;;;;;;18.60;15.68;;;;;;;;;;5051697;28;20055;-74
2023/01/07 04:15:09;;;;;;;20.52;17.15;;;;;;;;;;5051719;28;20377;-74
2023/01/07 04:17:35;;;;;;;19.45;17.05;;;;;;;;;;5041280;28;20041;-74
2023/01/07 04:20:01;;;;;;;23.15;16.77;;;;;;;;;;5045247;28;20443;-74
2023/01/07 04:22:27;;;;;;;21.40;16.15;;;;;;;;;;5047140;28;20137;-74
2023/01/07 04:24:53;;;;;;;21.90;16.13;;;;;;;;;;5048671;28;20120;-74
2023/01/07 04:27:19;;;;;;;20.27;16.20;;;;;;;;;;5078982;28;20064;-75
2023/01/07 04:29:45;;;;;;;21.15;15.80;;;;;;;;;;5048781;28;21056;-74
2023/01/07 04:32:11;;;;;;;21.08;16.20;;;;;;;;;;5046240;28;20037;-75
2023/01/07 04:34:37;;;;;;;23.58;17.23;;;;;;;;;;5047950;28;20040;-75
2023/01/07 04:37:03;;;;;;;20.70;16.60;;;;;;;;;;5051893;28;20382;-74
2023/01/07 04:39:29;;;;;;;22.85;17.95;;;;;;;;;;5047749;28;20143;-75
2023/01/07 04:41:55;;;;;;;24.13;17.70;;;;;;;;;;5045219;28;20037;-75
2023/01/07 04:44:21;;;;;;;22.25;17.90;;;;;;;;;;5046724;28;20538;-74
2023/01/07 04:46:47;;;;;;;22.63;18.63;;;;;;;;;;5046348;28;20048;-75
2023/01/07 04:49:13;;;;;;;23.63;20.20;;;;;;;;;;5048548;28;20041;-74
2023/01/07 04:51:39;;;;;;;24.15;18.15;;;;;;;;;;5035459;28;20463;-74
2023/01/07 04:54:05;;;;;;;23.48;17.40;;;;;;;;;;5048309;28;20098;-74
2023/01/07 04:56:31;;;;;;;24.40;17.80;;;;;;;;;;5043608;28;20057;-75
2023/01/07 04:58:57;;;;;;;23.55;19.52;;;;;;;;;;5045187;28;20056;-75
2023/01/07 05:01:24;;;;;;;25.05;18.90;;;;;;;;;;5038894;28;20132;-74
2023/01/07 05:03:50;;;;;;;23.38;18.00;;;;;;;;;;5049045;28;20053;-74
2023/01/07 05:06:16;;;;;;;28.02;19.55;;;;;;;;;;5072841;28;20048;-74
2023/01/07 05:08:42;;;;;;;26.40;20.08;;;;;;;;;;5047094;28;20055;-75
2023/01/07 05:11:08;;;;;;;23.15;17.13;;;;;;;;;;5045910;28;20089;-74
2023/01/07 05:13:34;;;;;;;25.13;18.73;;;;;;;;;;5044924;28;20451;-74
2023/01/07 05:16:00;;;;;;;29.90;20.83;;;;;;;;;;5040838;28;20053;-74
2023/01/07 05:18:26;;;;;;;23.42;16.38;;;;;;;;;;5047744;28;20105;-74
2023/01/07 05:20:52;;;;;;;28.73;20.08;;;;;;;;;;5048563;28;20048;-74
2023/01/07 05:23:18;;;;;;;27.10;19.65;;;;;;;;;;5044159;28;20455;-75
2023/01/07 05:25:44;;;;;;;24.40;16.08;;;;;;;;;;5072989;28;20049;-75
2023/01/07 05:28:11;;;;;;;23.20;18.45;;;;;;;;;;5042231;28;20033;-75
2023/01/07 05:30:38;;;;;;;24.40;18.83;;;;;;;;;;5044399;28;20689;-75
2023/01/07 05:33:06;;;;;;;24.83;18.27;;;;;;;;;;5041842;28;20446;-74
2023/01/07 05:35:32;;;;;;;24.58;17.15;;;;;;;;;;5044690;28;20053;-74
2023/01/07 05:37:58;;;;;;;25.08;17.63;;;;;;;;;;5042876;28;20041;-74
2023/01/07 05:40:24;;;;;;;26.17;16.92;;;;;;;;;;5042804;28;20076;-74
2023/01/07 05:42:50;;;;;;;21.38;16.98;;;;;;;;;;5043861;28;20067;-74
2023/01/07 05:45:16;;;;;;;25.70;17.13;;;;;;;;;;5037669;28;20130;-74
2023/01/07 05:47:42;;;;;;;23.58;16.42;;;;;;;;;;5046556;28;20484;-74
2023/01/07 05:50:09;;;;;;;20.35;16.67;;;;;;;;;;5048070;28;20936;-75
2023/01/07 05:52:35;;;;;;;19.65;15.90;;;;;;;;;;5049962;28;20164;-75
2023/01/07 05:55:01;;;;;;;20.73;16.83;;;;;;;;;;5050360;28;20080;-75
2023/01/07 05:57:27;;;;;;;21.98;15.85;;;;;;;;;;5049533;28;20040;-74
2023/01/07 05:59:53;;;;;;;18.42;14.93;;;;;;;;;;5076287;28;20056;-74
2023/01/07 06:02:19;;;;;;;25.48;16.92;;;;;;;;;;5044957;28;20044;-75
2023/01/07 06:04:45;;;;;;;19.95;14.75;;;;;;;;;;5049185;28;20052;-75
2023/01/07 06:07:11;;;;;;;23.85;16.23;;;;;;;;;;5047765;28;20037;-74
2023/01/07 06:09:37;;;;;;;20.23;14.98;;;;;;;;;;5044247;28;20052;-74
2023/01/07 06:12:03;;;;;;;21.95;15.55;;;;;;;;;;5049731;28;20037;-75
2023/01/07 06:14:29;;;;;;;20.25;15.15;;;;;;;;;;5048217;28;20049;-74
2023/01/07 06:16:55;;;;;;;19.63;13.80;;;;;;;;;;5045300;28;20369;-75
2023/01/07 06:19:21;;;;;;;21.48;14.95;;;;;;;;;;5044814;28;20563;-74
2023/01/07 06:21:48;;;;;;;21.98;15.18;;;;;;;;;;5046372;28;20045;-74
2023/01/07 06:24:14;;;;;;;20.73;14.82;;;;;;;;;;5048776;28;20064;-74
2023/01/07 06:26:40;;;;;;;17.60;12.30;;;;;;;;;;5047765;28;20041;-74
2023/01/07 06:29:06;;;;;;;20.00;13.25;;;;;;;;;;5049895;28;20044;-74
2023/01/07 06:31:33;;;;;;;21.08;14.70;;;;;;;;;;5041556;28;20045;-74
2023/01/07 06:33:58;;;;;;;19.88;14.57;;;;;;;;;;5042625;28;20123;-75
2023/01/07 06:36:25;;;;;;;18.83;13.50;;;;;;;;;;5078466;28;21086;-74
2023/01/07 06:38:51;;;;;;;21.77;14.50;;;;;;;;;;5047198;28;20130;-74
2023/01/07 06:41:17;;;;;;;21.80;14.77;;;;;;;;;;5048335;28;20441;-74
2023/01/07 06:43:43;;;;;;;21.83;15.13;;;;;;;;;;5048126;28;20485;-74
2023/01/07 06:46:09;;;;;;;21.25;14.57;;;;;;;;;;5045903;28;20052;-74
2023/01/07 06:48:35;;;;;;;19.13;13.73;;;;;;;;;;5048353;28;20045;-74
2023/01/07 06:51:01;;;;;;;21.63;15.32;;;;;;;;;;5047094;28;20048;-75
2023/01/07 06:53:27;;;;;;;24.65;15.27;;;;;;;;;;5046192;28;20056;-74
2023/01/07 06:55:53;;;;;;;26.02;14.02;;;;;;;;;;5049500;28;20110;-75
2023/01/07 06:58:19;;;;;;;21.40;14.80;;;;;;;;;;5038014;28;20049;-74
2023/01/07 07:00:45;;;;;;;18.23;12.80;;;;;;;;;;5045815;28;20094;-74
2023/01/07 07:03:11;;;;;;;21.33;14.95;;;;;;;;;;5043810;28;20037;-74
2023/01/07 07:05:37;;;;;;;20.83;14.50;;;;;;;;;;5049170;28;20440;-74
2023/01/07 07:08:06;;;;;;;20.52;14.82;;;;;;;;;;5043863;28;20480;-74
2023/01/07 07:10:32;;;;;;;18.83;14.68;;;;;;;;;;5080142;28;20045;-75
2023/01/07 07:12:58;;;;;;;20.92;13.77;;;;;;;;;;5044036;28;20048;-75
2023/01/07 07:15:24;;;;;;;20.65;14.20;;;;;;;;;;5047237;28;20484;-74
2023/01/07 07:17:50;;;;;;;21.10;14.20;;;;;;;;;;5043349;28;20044;-74
2023/01/07 07:20:16;;;;;;;22.13;14.95;;;;;;;;;;5046514;28;20063;-74
2023/01/07 07:22:46;;;;;;;22.23;14.73;;;;;;;;;;5049182;28;20060;-74
2023/01/07 07:25:12;;;;;;;18.98;14.75;;;;;;;;;;5073654;28;20045;-74
2023/01/07 07:27:38;;;;;;;20.38;14.15;;;;;;;;;;5048025;28;20037;-75
2023/01/07 07:30:04;;;;;;;19.77;13.48;;;;;;;;;;5044149;28;20103;-75
2023/01/07 07:32:30;;;;;;;17.70;13.60;;;;;;;;;;5041799;28;20068;-75
2023/01/07 07:34:56;;;;;;;20.63;12.75;;;;;;;;;;5047696;28;20112;-75
2023/01/07 07:37:22;;;;;;;17.02;13.77;;;;;;;;;;5044910;28;20140;-74
2023/01/07 07:39:48;;;;;;;16.27;12.98;;;;;;;;;;5051027;28;20210;-74
2023/01/07 07:42:15;;;;;;;20.92;14.05;;;;;;;;;;5042266;28;20448;-75
2023/01/07 07:44:41;;;;;;;17.25;12.80;;;;;;;;;;5044546;28;20174;-74
2023/01/07 07:47:07;;;;;;;16.55;13.07;;;;;;;;;;5045777;28;20480;-74
2023/01/07 07:49:33;;;;;;;17.60;12.90;;;;;;;;;;5046371;28;20502;-74
2023/01/07 07:51:59;;;;;;;18.23;12.75;;;;;;;;;;5048559;28;20108;-74
2023/01/07 07:54:25;;;;;;;16.13;12.02;;;;;;;;;;5042693;28;20057;-75
2023/01/07 07:56:51;;;;;;;16.77;11.65;;;;;;;;;;5050492;28;20058;-75
2023/01/07 07:59:17;;;;;;;20.38;12.23;;;;;;;;;;5047488;28;20045;-74
2023/01/07 08:01:43;;;;;;;14.65;9.85;;;;;;;;;;5042690;28;20045;-75
2023/01/07 08:04:09;;;;;;;16.58;10.25;;;;;;;;;;5039127;28;20053;-76
2023/01/07 08:06:35;;;;;;;14.93;10.88;;;;;;;;;;5049319;28;20041;-75
2023/01/07 08:09:01;;;;;;;12.82;10.68;;;;;;;;;;5045840;28;20431;-75
2023/01/07 08:11:27;;;;;;;13.18;10.70;;;;;;;;;;5044194;28;20459;-76
2023/01/07 08:13:53;;;;;;;15.07;10.63;;;;;;;;;;5046122;28;20084;-76
2023/01/07 08:16:19;;;;;;;13.23;11.02;;;;;;;;;;5044584;28;20081;-75
2023/01/07 08:18:45;;;;;;;15.27;10.02;;;;;;;;;;5048297;28;20071;-76
2023/01/07 08:21:11;;;;;;;13.60;9.13;;;;;;;;;;5045553;28;20148;-76
2023/01/07 08:23:37;;;;;;;11.88;9.00;;;;;;;;;;5047975;28;20543;-77
2023/01/07 08:26:04;;;;;;;12.30;9.55;;;;;;;;;;5050660;28;20392;-76
2023/01/07 08:28:31;;;;;;;11.45;8.02;;;;;;;;;;5049856;28;20037;-74
2023/01/07 08:30:57;;;;;;;10.60;8.25;;;;;;;;;;5041281;28;20067;-75
2023/01/07 08:33:23;;;;;;;9.23;8.20;;;;;;;;;;5042810;28;20050;-76
2023/01/07 08:35:49;;;;;;;10.35;8.18;;;;;;;;;;5046993;28;20135;-76
2023/01/07 08:38:15;;;;;;;10.35;7.53;;;;;;;;;;5048519;28;20052;-76
2023/01/07 08:40:44;;;;;;;9.75;6.95;;;;;;;;;;5046277;28;20076;-76
2023/01/07 08:43:11;;;;;;;10.02;7.25;;;;;;;;;;5044840;28;20041;-76
2023/01/07 08:45:37;;;;;;;9.35;7.30;;;;;;;;;;5049324;28;20048;-76
2023/01/07 08:48:03;;;;;;;10.30;7.10;;;;;;;;;;5044659;28;20507;-75
2023/01/07 08:50:30;;;;;;;9.77;6.82;;;;;;;;;;5038449;28;20500;-75
2023/01/07 08:52:56;;;;;;;11.48;6.85;;;;;;;;;;5036019;28;20125;-75
2023/01/07 08:55:23;;;;;;;9.63;7.28;;;;;;;;;;5043950;28;20124;-75
2023/01/07 08:57:49;;;;;;;9.20;6.78;;;;;;;;;;5045084;28;20371;-76
2023/01/07 09:00:16;;;;;;;8.98;6.25;;;;;;;;;;5061714;28;20045;-75
2023/01/07 09:02:43;;;;;;;8.32;5.60;;;;;;;;;;5041571;28;20484;-76
2023/01/07 09:05:09;;;;;;;10.32;6.10;;;;;;;;;;5048497;28;20049;-75
2023/01/07 09:07:35;;;;;;;8.00;6.07;;;;;;;;;;5050260;28;20053;-75
2023/01/07 09:10:01;;;;;;;8.95;5.97;;;;;;;;;;5036705;28;20049;-75
2023/01/07 09:12:27;;;;;;;7.95;6.38;;;;;;;;;;5048353;28;20037;-75
2023/01/07 09:14:53;;;;;;;7.00;5.55;;;;;;;;;;5051685;28;20397;-75
2023/01/07 09:17:19;;;;;;;12.35;8.30;;;;;;;;;;5035710;28;20385;-75
2023/01/07 09:19:45;;;;;;;8.23;5.63;;;;;;;;;;5031177;28;20041;-76
2023/01/07 09:22:11;;;;;;;7.43;5.30;;;;;;;;;;5047042;28;20040;-76
2023/01/07 09:24:37;;;;;;;8.10;5.28;;;;;;;;;;5050855;28;20072;-76
2023/01/07 09:27:03;;;;;;;8.93;5.60;;;;;;;;;;5043714;28;20072;-76
2023/01/07 09:29:29;;;;;;;6.05;4.75;;;;;;;;;;5050538;28;20134;-76
2023/01/07 09:31:55;;;;;;;7.03;4.30;;;;;;;;;;5048251;28;20111;-75
2023/01/07 09:34:21;;;;;;;5.75;4.60;;;;;;;;;;5048912;28;20499;-76
2023/01/07 09:36:47;;;;;;;6.10;4.35;;;;;;;;;;5040318;28;20060;-75
2023/01/07 09:39:13;;;;;;;5.45;4.32;;;;;;;;;;5035227;28;20519;-75
2023/01/07 09:41:52;;;;;;;6.30;4.28;;;;;;;;;;5039902;28;24640;-75
2023/01/07 09:44:37;;;;;;;5.95;4.00;;;;;;;;;;5032528;28;20041;-75
2023/01/07 09:47:04;;;;;;;6.05;3.60;;;;;;;;;;5035143;28;20175;-75
2023/01/07 09:49:34;;;;;;;4.55;3.65;;;;;;;;;;5038147;28;20033;-75
2023/01/07 09:52:11;;;;;;;4.95;3.85;;;;;;;;;;5046067;28;20503;-75
2023/01/07 09:54:41;;;;;;;5.25;3.97;;;;;;;;;;5045515;28;20048;-75
2023/01/07 09:57:11;;;;;;;4.05;3.47;;;;;;;;;;5041879;28;20044;-75
2023/01/07 09:59:37;;;;;;;6.57;3.63;;;;;;;;;;5042229;28;20657;-75
2023/01/07 10:02:15;;;;;;;5.10;3.50;;;;;;;;;;5043392;28;20128;-75
2023/01/07 10:04:44;;;;;;;8.35;3.75;;;;;;;;;;5045549;28;20029;-75
2023/01/07 10:07:17;;;;;;;6.55;5.28;;;;;;;;;;5037234;28;20049;-74
2023/01/07 10:09:50;;;;;;;5.93;4.28;;;;;;;;;;5042673;28;20425;-75
2023/01/07 10:12:25;;;;;;;5.35;3.40;;;;;;;;;;5045808;28;20425;-75
2023/01/07 10:15:11;;;;;;;3.72;3.33;;;;;;;;;;5038359;28;20041;-75
2023/01/07 10:17:38;;;;;;;6.10;3.20;;;;;;;;;;5037995;28;20045;-75
2023/01/07 10:20:10;;;;;;;4.68;3.20;;;;;;;;;;5039918;28;20038;-75
2023/01/07 10:23:02;;;;;;;5.28;3.55;;;;;;;;;;5048780;28;20495;-75
2023/01/07 10:25:31;;;;;;;3.75;2.78;;;;;;;;;;5029160;28;20049;-75
2023/01/07 10:27:59;;;;;;;2.88;2.60;;;;;;;;;;5047072;28;20053;-75
2023/01/07 10:30:28;;;;;;;3.28;2.72;;;;;;;;;;5042796;28;20171;-75
2023/01/07 10:33:14;;;;;;;3.17;2.70;;;;;;;;;;5047072;28;20048;-75
2023/01/07 10:35:40;;;;;;;3.65;2.60;;;;;;;;;;5052705;28;20450;-75
2023/01/07 10:38:12;;;;;;;2.38;2.15;;;;;;;;;;5047617;28;20507;-75
2023/01/07 10:40:41;;;;;;;2.67;2.38;;;;;;;;;;5045335;28;20041;-75
2023/01/07 10:43:13;;;;;;;4.80;3.25;;;;;;;;;;5044505;28;20063;-75
2023/01/07 10:45:50;;;;;;;3.42;3.13;;;;;;;;;;5048455;28;20135;-75
2023/01/07 10:48:20;;;;;;;2.83;2.58;;;;;;;;;;5047717;28;20075;-75
2023/01/07 10:51:01;;;;;;;2.90;2.33;;;;;;;;;;5075224;28;20040;-75
2023/01/07 10:53:33;;;;;;;3.22;2.58;;;;;;;;;;5046395;28;20484;-75
2023/01/07 10:56:19;;;;;;;3.47;2.78;;;;;;;;;;5050209;28;20045;-75
2023/01/07 10:58:45;;;;;;;2.60;2.40;;;;;;;;;;5042967;28;20056;-75
2023/01/07 11:01:26;;;;;;;2.47;2.28;;;;;;;;;;5043448;28;20045;-76
2023/01/07 11:03:53;;;;;;;3.42;2.58;;;;;;;;;;5042665;28;20041;-76
2023/01/07 11:06:21;;;;;;;2.40;2.20;;;;;;;;;;5044637;28;20045;-76
2023/01/07 11:08:48;;;;;;;2.92;2.42;;;;;;;;;;5045456;28;20052;-75
2023/01/07 11:11:19;;;;;;;2.70;2.50;;;;;;;;;;5047432;28;20515;-75
2023/01/07 11:13:50;;;;;;;2.65;2.45;;;;;;;;;;5074064;28;20400;-75
2023/01/07 11:16:18;;;;;;;3.15;2.53;;;;;;;;;;5046197;28;20041;-75
2023/01/07 11:18:53;;;;;;;2.75;2.47;;;;;;;;;;5042213;28;20102;-74
2023/01/07 11:21:33;;;;;;;3.35;2.45;;;;;;;;;;5045368;28;20064;-75
2023/01/07 11:24:00;;;;;;;3.22;2.38;;;;;;;;;;5048480;28;20047;-75
2023/01/07 11:26:28;;;;;;;3.38;2.50;;;;;;;;;;5044393;28;20056;-75
2023/01/07 11:28:54;;;;;;;3.17;2.40;;;;;;;;;;5050996;28;20490;-75
2023/01/07 11:31:21;;;;;;;2.53;2.33;;;;;;;;;;5046455;28;20045;-75
2023/01/07 11:33:49;;;;;;;3.38;2.88;;;;;;;;;;5045866;28;20302;-75
2023/01/07 11:36:16;;;;;;;5.43;3.92;;;;;;;;;;5045129;28;20162;-75
2023/01/07 11:38:42;;;;;;;2.83;2.20;;;;;;;;;;5047098;28;20044;-75
2023/01/07 11:41:22;;;;;;;2.65;2.40;;;;;;;;;;5048483;28;20090;-75
2023/01/07 11:43:49;;;;;;;2.50;2.30;;;;;;;;;;5036347;28;20145;-75
2023/01/07 11:46:16;;;;;;;2.53;2.22;;;;;;;;;;5049852;28;20411;-75
2023/01/07 11:48:51;;;;;;;2.83;2.20;;;;;;;;;;5043053;28;20052;-75
2023/01/07 11:51:18;;;;;;;2.42;2.22;;;;;;;;;;5042331;28;20057;-75
2023/01/07 11:53:50;;;;;;;2.53;2.25;;;;;;;;;;5044222;28;20735;-75
2023/01/07 11:56:19;;;;;;;2.55;2.30;;;;;;;;;;5049491;28;20041;-76
2023/01/07 11:58:46;;;;;;;2.67;2.10;;;;;;;;;;5045888;28;20049;-75
2023/01/07 12:01:12;;;;;;;1.88;1.75;;;;;;;;;;5044846;28;20040;-75
2023/01/07 12:03:43;;;;;;;3.13;2.00;;;;;;;;;;5042437;28;20049;-75
2023/01/07 12:06:16;;;;;;;2.00;1.90;;;;;;;;;;5036307;28;20981;-75
2023/01/07 12:08:49;;;;;;;2.00;1.90;;;;;;;;;;5046357;28;20044;-75
2023/01/07 12:11:15;;;;;;;2.08;1.90;;;;;;;;;;5045384;28;20044;-76
2023/01/07 12:13:49;;;;;;;2.10;2.00;;;;;;;;;;5039075;28;20045;-76
2023/01/07 12:16:16;;;;;;;2.15;2.00;;;;;;;;;;5044683;28;20488;-75
2023/01/07 12:18:45;;;;;;;2.05;1.95;;;;;;;;;;5048380;28;20488;-76
2023/01/07 12:21:28;;;;;;;2.10;1.90;;;;;;;;;;5045456;28;20049;-75
2023/01/07 12:24:03;;;;;;;2.20;2.10;;;;;;;;;;5043753;28;20079;-76
2023/01/07 12:26:36;;;;;;;2.35;2.10;;;;;;;;;;5044425;28;20586;-76
2023/01/07 12:29:22;;;;;;;2.50;2.30;;;;;;;;;;5043161;28;20094;-75
2023/01/07 12:32:09;;;;;;;2.22;2.10;;;;;;;;;;5038627;28;20048;-75
2023/01/07 12:34:47;;;;;;;3.53;2.15;;;;;;;;;;5050225;28;20065;-75
2023/01/07 12:37:22;;;;;;;2.53;2.30;;;;;;;;;;5043690;28;20053;-76
2023/01/07 12:39:50;;;;;;;4.15;2.38;;;;;;;;;;5042826;28;20107;-76
2023/01/07 12:42:23;;;;;;;2.92;2.38;;;;;;;;;;5042557;28;20041;-76
2023/01/07 12:44:51;;;;;;;2.70;2.45;;;;;;;;;;5035737;28;20125;-75
2023/01/07 12:47:19;;;;;;;2.60;2.40;;;;;;;;;;5034978;28;20118;-75
2023/01/07 12:49:48;;;;;;;2.65;2.45;;;;;;;;;;5045016;28;20044;-76
2023/01/07 12:52:14;;;;;;;2.58;2.20;;;;;;;;;;5044314;28;20559;-76
2023/01/07 12:54:43;;;;;;;3.40;2.20;;;;;;;;;;5036685;28;20141;-76
2023/01/07 12:57:15;;;;;;;3.03;2.50;;;;;;;;;;5042062;28;20055;-75
2023/01/07 12:59:45;;;;;;;2.80;2.47;;;;;;;;;;5052943;28;20649;-76
2023/01/07 13:02:18;;;;;;;2.75;2.28;;;;;;;;;;5037037;28;20095;-75
2023/01/07 13:05:08;;;;;;;2.72;2.38;;;;;;;;;;5038455;28;20428;-75
2023/01/07 13:07:34;;;;;;;2.42;2.22;;;;;;;;;;5047182;28;20123;-76
2023/01/07 13:10:13;;;;;;;2.50;2.30;;;;;;;;;;5042770;28;20128;-75
2023/01/07 13:12:45;;;;;;;2.72;2.50;;;;;;;;;;5044816;28;20124;-76
2023/01/07 13:15:27;;;;;;;2.65;2.45;;;;;;;;;;5041585;28;20053;-76
2023/01/07 13:17:57;;;;;;;2.38;2.17;;;;;;;;;;5035827;28;20041;-74
2023/01/07 13:20:43;;;;;;;2.65;2.45;;;;;;;;;;5040785;28;20069;-79
2023/01/07 13:23:17;;;;;;;3.17;2.33;;;;;;;;;;5048245;28;20152;-77
2023/01/07 13:25:43;;;;;;;3.42;2.47;;;;;;;;;;5070338;28;20037;-79
2023/01/07 13:28:15;;;;;;;2.50;2.30;;;;;;;;;;5042844;28;20554;-78
2023/01/07 13:30:55;;;;;;;3.35;2.60;;;;;;;;;;5039939;28;20116;-75
2023/01/07 13:33:26;;;;;;;2.70;2.50;;;;;;;;;;5038406;28;20055;-78
2023/01/07 13:36:08;;;;;;;2.40;2.20;;;;;;;;;;5044830;28;20491;-78
2023/01/07 13:38:40;;;;;;;2.70;2.50;;;;;;;;;;5046364;28;20076;-79
2023/01/07 13:41:06;;;;;;;2.83;2.30;;;;;;;;;;5042394;28;20056;-79
2023/01/07 13:43:42;;;;;;;2.70;2.50;;;;;;;;;;5047592;28;20384;-78
2023/01/07 13:46:11;;;;;;;2.70;2.50;;;;;;;;;;5041285;28;20151;-81
2023/01/07 13:48:39;;;;;;;2.72;2.53;;;;;;;;;;5046574;28;20037;-76
2023/01/07 13:51:06;;;;;;;4.00;2.60;;;;;;;;;;5043292;28;20083;-75
2023/01/07 13:53:45;;;;;;;3.00;2.70;;;;;;;;;;5033621;28;20046;-75
2023/01/07 13:56:17;;;;;;;2.50;2.30;;;;;;;;;;5050125;28;20048;-76
2023/01/07 13:58:43;;;;;;;2.55;2.35;;;;;;;;;;5042962;28;20063;-75
2023/01/07 14:01:11;;;;;;;2.72;2.47;;;;;;;;;;5040668;28;20049;-75
2023/01/07 14:03:45;;;;;;;2.90;2.38;;;;;;;;;;5040878;28;20045;-75
2023/01/07 14:06:23;;;;;;;2.88;2.67;;;;;;;;;;5043189;28;20040;-75
2023/01/07 14:09:04;;;;;;;2.50;2.30;;;;;;;;;;5078661;28;20078;-75
2023/01/07 14:11:34;;;;;;;2.90;2.50;;;;;;;;;;5046716;28;20045;-76
2023/01/07 14:14:19;;;;;;;2.70;2.45;;;;;;;;;;5045711;28;20132;-76
2023/01/07 14:17:01;;;;;;;2.70;2.50;;;;;;;;;;5043364;28;20502;-76
2023/01/07 14:19:37;;;;;;;2.60;2.40;;;;;;;;;;5037087;28;20076;-75
2023/01/07 14:22:06;;;;;;;2.60;2.40;;;;;;;;;;5047509;28;20511;-75
2023/01/07 14:24:32;;;;;;;3.10;2.80;;;;;;;;;;5046449;28;20437;-75
2023/01/07 14:26:58;;;;;;;2.65;2.45;;;;;;;;;;5046687;28;20037;-75
2023/01/07 14:29:34;;;;;;;3.10;2.80;;;;;;;;;;5047124;28;20040;-76
2023/01/07 14:32:12;;;;;;;3.00;2.50;;;;;;;;;;5043324;28;20041;-76
2023/01/07 14:34:38;;;;;;;2.78;2.58;;;;;;;;;;5041494;28;20037;-75
2023/01/07 14:37:13;;;;;;;3.42;3.13;;;;;;;;;;5036788;28;20440;-76
2023/01/07 14:39:46;;;;;;;3.13;2.90;;;;;;;;;;5038608;28;20088;-75